VOZ665 YSCB-YSSY
Flight info
| Callsign | VOZ665 |
|---|---|
| Flight time | 0h 34m |
| Altitude | 17000 |
| Route | CB W423 CULIN Y59 RIVET |
| Aircraft | B38M/M-SDE1FGHILORVWXY/HB1 |
Departure
| Time | 2026-04-26 02:15 |
|---|---|
| Airport | Canberra Airport (YSCB) |
Arrival
| Time | 2026-04-26 02:49 |
|---|---|
| Airport | Sydney Kingsford Smith International Airport (YSSY) |
| Time | Latitude | Longitude | Altitude | Speed | Heading |
|---|---|---|---|---|---|
| 2026-04-26 01:41 | -35.30625 | 149.19024 | 1877 ft | 0 kts | 220° |
| 2026-04-26 02:04 | -35.30619 | 149.19030 | 1880 ft | 1 kts | 220° |
| 2026-04-26 02:04 | -35.30611 | 149.19038 | 1879 ft | 1 kts | 220° |
| 2026-04-26 02:04 | -35.30604 | 149.19045 | 1879 ft | 1 kts | 220° |
| 2026-04-26 02:04 | -35.30597 | 149.19053 | 1879 ft | 1 kts | 220° |
| 2026-04-26 02:05 | -35.30589 | 149.19060 | 1878 ft | 1 kts | 220° |
| 2026-04-26 02:05 | -35.30581 | 149.19066 | 1877 ft | 1 kts | 159° |
| 2026-04-26 02:05 | -35.30575 | 149.19061 | 1879 ft | 0 kts | 117° |
| 2026-04-26 02:07 | -35.30575 | 149.19062 | 1879 ft | 1 kts | 117° |
| 2026-04-26 02:08 | -35.30582 | 149.19079 | 1880 ft | 5 kts | 120° |
| 2026-04-26 02:08 | -35.30632 | 149.19156 | 1882 ft | 17 kts | 131° |
| 2026-04-26 02:08 | -35.30688 | 149.19224 | 1875 ft | 14 kts | 149° |
| 2026-04-26 02:08 | -35.30821 | 149.19242 | 1882 ft | 23 kts | 179° |
| 2026-04-26 02:09 | -35.30987 | 149.19245 | 1882 ft | 25 kts | 182° |
| 2026-04-26 02:09 | -35.31166 | 149.19240 | 1882 ft | 27 kts | 181° |
| 2026-04-26 02:09 | -35.31356 | 149.19240 | 1882 ft | 28 kts | 181° |
| 2026-04-26 02:09 | -35.31557 | 149.19239 | 1878 ft | 30 kts | 180° |
| 2026-04-26 02:10 | -35.31769 | 149.19241 | 1882 ft | 31 kts | 179° |
| 2026-04-26 02:10 | -35.31972 | 149.19270 | 1878 ft | 22 kts | 142° |
| 2026-04-26 02:10 | -35.31992 | 149.19292 | 1880 ft | 0 kts | 126° |
| 2026-04-26 02:12 | -35.31996 | 149.19300 | 1881 ft | 5 kts | 122° |
| 2026-04-26 02:12 | -35.32018 | 149.19396 | 1880 ft | 15 kts | 91° |
| 2026-04-26 02:12 | -35.32005 | 149.19432 | 1878 ft | 7 kts | 42° |
| 2026-04-26 02:12 | -35.31935 | 149.19446 | 1879 ft | 0 kts | 0° |
| 2026-04-26 02:13 | -35.31934 | 149.19446 | 1879 ft | 0 kts | 0° |
| 2026-04-26 02:14 | -35.31922 | 149.19446 | 1882 ft | 3 kts | 0° |
| 2026-04-26 02:14 | -35.31891 | 149.19447 | 1882 ft | 6 kts | 0° |
| 2026-04-26 02:14 | -35.31810 | 149.19447 | 1882 ft | 34 kts | 360° |
| 2026-04-26 02:14 | -35.31309 | 149.19446 | 1880 ft | 110 kts | 0° |
| 2026-04-26 02:15 | -35.30327 | 149.19441 | 1878 ft | 169 kts | 359° |
| 2026-04-26 02:15 | -35.29112 | 149.19447 | 2122 ft | 200 kts | 1° |
| 2026-04-26 02:15 | -35.27728 | 149.19508 | 3087 ft | 196 kts | 2° |
| 2026-04-26 02:15 | -35.26345 | 149.19688 | 3919 ft | 200 kts | 8° |
| 2026-04-26 02:16 | -35.24887 | 149.19919 | 4550 ft | 224 kts | 5° |
| 2026-04-26 02:16 | -35.23233 | 149.20123 | 5135 ft | 252 kts | 5° |
| 2026-04-26 02:16 | -35.21419 | 149.20343 | 5916 ft | 270 kts | 5° |
| 2026-04-26 02:16 | -35.19523 | 149.20570 | 6946 ft | 275 kts | 5° |
| 2026-04-26 02:17 | -35.17609 | 149.20799 | 8031 ft | 280 kts | 5° |
| 2026-04-26 02:17 | -35.15649 | 149.21031 | 9061 ft | 284 kts | 5° |
| 2026-04-26 02:17 | -35.13687 | 149.21264 | 10041 ft | 290 kts | 5° |
| 2026-04-26 02:17 | -35.11620 | 149.21554 | 10658 ft | 310 kts | 12° |
| 2026-04-26 02:18 | -35.09532 | 149.22446 | 11291 ft | 325 kts | 21° |
| 2026-04-26 02:18 | -35.07382 | 149.23458 | 12010 ft | 336 kts | 20° |
| 2026-04-26 02:18 | -35.05190 | 149.24484 | 12964 ft | 339 kts | 20° |
| 2026-04-26 02:18 | -35.02966 | 149.25523 | 13839 ft | 344 kts | 20° |
| 2026-04-26 02:19 | -35.00716 | 149.26573 | 14713 ft | 349 kts | 20° |
| 2026-04-26 02:19 | -34.98434 | 149.27638 | 15566 ft | 353 kts | 20° |
| 2026-04-26 02:19 | -34.96528 | 149.28528 | 16235 ft | 357 kts | 20° |
| 2026-04-26 02:19 | -34.94712 | 149.29374 | 16751 ft | 364 kts | 20° |
| 2026-04-26 02:20 | -34.92327 | 149.30485 | 16933 ft | 366 kts | 20° |
| 2026-04-26 02:20 | -34.89921 | 149.31605 | 16958 ft | 372 kts | 20° |
| 2026-04-26 02:20 | -34.87493 | 149.32735 | 16968 ft | 374 kts | 20° |
| 2026-04-26 02:20 | -34.85092 | 149.33851 | 16999 ft | 375 kts | 20° |
| 2026-04-26 02:21 | -34.82625 | 149.34998 | 16999 ft | 374 kts | 20° |
| 2026-04-26 02:21 | -34.80184 | 149.36131 | 17000 ft | 374 kts | 20° |
| 2026-04-26 02:21 | -34.77746 | 149.37263 | 17000 ft | 374 kts | 20° |
| 2026-04-26 02:21 | -34.75399 | 149.38614 | 16969 ft | 374 kts | 34° |
| 2026-04-26 02:22 | -34.73513 | 149.40794 | 17000 ft | 375 kts | 53° |
| 2026-04-26 02:22 | -34.72182 | 149.43453 | 17008 ft | 375 kts | 60° |
| 2026-04-26 02:22 | -34.70914 | 149.46231 | 16999 ft | 376 kts | 61° |
| 2026-04-26 02:22 | -34.69666 | 149.49020 | 17000 ft | 376 kts | 61° |
| 2026-04-26 02:23 | -34.68467 | 149.51730 | 17000 ft | 376 kts | 62° |
| 2026-04-26 02:23 | -34.67237 | 149.54529 | 17000 ft | 376 kts | 62° |
| 2026-04-26 02:23 | -34.66009 | 149.57334 | 17000 ft | 376 kts | 62° |
| 2026-04-26 02:23 | -34.64782 | 149.60137 | 17000 ft | 376 kts | 62° |
| 2026-04-26 02:24 | -34.63553 | 149.62943 | 17000 ft | 376 kts | 62° |
| 2026-04-26 02:24 | -34.62323 | 149.65752 | 17000 ft | 376 kts | 62° |
| 2026-04-26 02:24 | -34.61096 | 149.68550 | 17000 ft | 376 kts | 62° |
| 2026-04-26 02:24 | -34.59865 | 149.71356 | 17000 ft | 376 kts | 62° |
| 2026-04-26 02:25 | -34.58634 | 149.74158 | 17000 ft | 376 kts | 62° |
| 2026-04-26 02:25 | -34.57404 | 149.76958 | 17000 ft | 376 kts | 62° |
| 2026-04-26 02:25 | -34.56173 | 149.79757 | 17000 ft | 376 kts | 62° |
| 2026-04-26 02:25 | -34.54937 | 149.82565 | 17000 ft | 376 kts | 62° |
| 2026-04-26 02:26 | -34.53703 | 149.85366 | 17000 ft | 376 kts | 62° |
| 2026-04-26 02:26 | -34.52473 | 149.88156 | 17000 ft | 376 kts | 62° |
| 2026-04-26 02:26 | -34.51237 | 149.90956 | 17000 ft | 375 kts | 62° |
| 2026-04-26 02:26 | -34.50016 | 149.93721 | 17000 ft | 375 kts | 62° |
| 2026-04-26 02:27 | -34.48785 | 149.96505 | 17000 ft | 375 kts | 62° |
| 2026-04-26 02:27 | -34.47551 | 149.99297 | 17001 ft | 375 kts | 62° |
| 2026-04-26 02:27 | -34.46318 | 150.02082 | 16999 ft | 375 kts | 62° |
| 2026-04-26 02:27 | -34.45083 | 150.04869 | 17000 ft | 375 kts | 62° |
| 2026-04-26 02:28 | -34.43847 | 150.07656 | 16999 ft | 375 kts | 62° |
| 2026-04-26 02:28 | -34.42614 | 150.10434 | 17001 ft | 375 kts | 62° |
| 2026-04-26 02:28 | -34.41377 | 150.13219 | 17000 ft | 375 kts | 62° |
| 2026-04-26 02:28 | -34.40142 | 150.15999 | 16999 ft | 375 kts | 62° |
| 2026-04-26 02:29 | -34.38915 | 150.18757 | 17013 ft | 365 kts | 62° |
| 2026-04-26 02:29 | -34.37734 | 150.21410 | 17021 ft | 350 kts | 62° |
| 2026-04-26 02:29 | -34.36598 | 150.23960 | 16862 ft | 340 kts | 61° |
| 2026-04-26 02:29 | -34.35492 | 150.26440 | 16665 ft | 332 kts | 61° |
| 2026-04-26 02:30 | -34.34400 | 150.28887 | 16340 ft | 329 kts | 61° |
| 2026-04-26 02:30 | -34.33331 | 150.31282 | 16015 ft | 326 kts | 61° |
| 2026-04-26 02:30 | -34.32256 | 150.33687 | 15682 ft | 323 kts | 61° |
| 2026-04-26 02:30 | -34.31192 | 150.36070 | 15341 ft | 321 kts | 61° |
| 2026-04-26 02:31 | -34.30137 | 150.38427 | 15036 ft | 317 kts | 61° |
| 2026-04-26 02:31 | -34.29088 | 150.40772 | 14713 ft | 315 kts | 61° |
| 2026-04-26 02:31 | -34.28051 | 150.43090 | 14386 ft | 312 kts | 61° |
| 2026-04-26 02:31 | -34.27020 | 150.45397 | 14020 ft | 312 kts | 61° |
| 2026-04-26 02:32 | -34.25988 | 150.47704 | 13697 ft | 309 kts | 61° |
| 2026-04-26 02:32 | -34.24973 | 150.49975 | 13385 ft | 306 kts | 61° |
| 2026-04-26 02:32 | -34.23961 | 150.52235 | 13067 ft | 304 kts | 61° |
| 2026-04-26 02:32 | -34.22971 | 150.54447 | 12712 ft | 304 kts | 61° |
| 2026-04-26 02:33 | -34.21949 | 150.56727 | 12142 ft | 312 kts | 61° |
| 2026-04-26 02:33 | -34.20916 | 150.59032 | 11824 ft | 309 kts | 61° |
| 2026-04-26 02:33 | -34.19904 | 150.61286 | 11668 ft | 300 kts | 61° |
| 2026-04-26 02:33 | -34.18918 | 150.63484 | 11434 ft | 295 kts | 61° |
| 2026-04-26 02:34 | -34.17945 | 150.65648 | 11127 ft | 293 kts | 61° |
| 2026-04-26 02:34 | -34.16974 | 150.67809 | 10758 ft | 293 kts | 61° |
| 2026-04-26 02:34 | -34.16006 | 150.69961 | 10449 ft | 290 kts | 61° |
| 2026-04-26 02:34 | -34.15051 | 150.72081 | 10269 ft | 283 kts | 61° |
| 2026-04-26 02:35 | -34.14135 | 150.74116 | 10139 ft | 274 kts | 61° |
| 2026-04-26 02:35 | -34.13236 | 150.76109 | 9970 ft | 268 kts | 61° |
| 2026-04-26 02:35 | -34.12342 | 150.78093 | 9642 ft | 271 kts | 61° |
| 2026-04-26 02:35 | -34.11428 | 150.80120 | 9187 ft | 279 kts | 61° |
| 2026-04-26 02:36 | -34.10497 | 150.82182 | 8784 ft | 281 kts | 61° |
| 2026-04-26 02:36 | -34.09568 | 150.84246 | 8535 ft | 277 kts | 61° |
| 2026-04-26 02:36 | -34.08662 | 150.86261 | 8419 ft | 272 kts | 61° |
| 2026-04-26 02:36 | -34.07756 | 150.88272 | 8315 ft | 273 kts | 61° |
| 2026-04-26 02:37 | -34.06861 | 150.90261 | 8186 ft | 273 kts | 61° |
| 2026-04-26 02:37 | -34.06675 | 150.90671 | 8165 ft | 273 kts | 61° |
| 2026-04-26 02:37 | -34.05747 | 150.92730 | 8028 ft | 272 kts | 61° |
| 2026-04-26 02:37 | -34.04847 | 150.94726 | 7886 ft | 271 kts | 61° |
| 2026-04-26 02:38 | -34.03959 | 150.96694 | 7751 ft | 271 kts | 61° |
| 2026-04-26 02:38 | -34.03282 | 150.98772 | 7583 ft | 270 kts | 82° |
| 2026-04-26 02:38 | -34.03422 | 151.00999 | 7316 ft | 266 kts | 109° |
| 2026-04-26 02:38 | -34.04323 | 151.02891 | 6945 ft | 258 kts | 131° |
| 2026-04-26 02:39 | -34.05524 | 151.04480 | 6587 ft | 255 kts | 133° |
| 2026-04-26 02:39 | -34.06731 | 151.06053 | 6160 ft | 254 kts | 133° |
| 2026-04-26 02:39 | -34.08065 | 151.07424 | 5705 ft | 252 kts | 153° |
| 2026-04-26 02:39 | -34.09573 | 151.08019 | 5277 ft | 250 kts | 167° |
| 2026-04-26 02:40 | -34.11280 | 151.08506 | 4767 ft | 254 kts | 167° |
| 2026-04-26 02:40 | -34.12993 | 151.08979 | 4248 ft | 250 kts | 168° |
| 2026-04-26 02:40 | -34.14660 | 151.09430 | 3722 ft | 242 kts | 168° |
| 2026-04-26 02:40 | -34.16285 | 151.09862 | 3200 ft | 236 kts | 168° |
| 2026-04-26 02:41 | -34.17867 | 151.10278 | 2820 ft | 228 kts | 168° |
| 2026-04-26 02:41 | -34.19404 | 151.10680 | 2734 ft | 223 kts | 168° |
| 2026-04-26 02:41 | -34.20889 | 151.11144 | 2697 ft | 219 kts | 156° |
| 2026-04-26 02:41 | -34.21996 | 151.12298 | 2664 ft | 212 kts | 121° |
| 2026-04-26 02:42 | -34.22363 | 151.13990 | 2676 ft | 211 kts | 86° |
| 2026-04-26 02:42 | -34.22063 | 151.15728 | 2724 ft | 212 kts | 73° |
| 2026-04-26 02:42 | -34.21639 | 151.17436 | 2735 ft | 212 kts | 73° |
| 2026-04-26 02:42 | -34.21212 | 151.19131 | 2713 ft | 210 kts | 73° |
| 2026-04-26 02:43 | -34.20367 | 151.22481 | 2692 ft | 199 kts | 72° |
| 2026-04-26 02:43 | -34.19662 | 151.23807 | 2671 ft | 186 kts | 36° |
| 2026-04-26 02:43 | -34.18459 | 151.24433 | 2733 ft | 193 kts | 14° |
| 2026-04-26 02:44 | -34.17124 | 151.24746 | 2732 ft | 197 kts | 358° |
| 2026-04-26 02:44 | -34.15872 | 151.24173 | 2535 ft | 195 kts | 318° |
| 2026-04-26 02:44 | -34.14858 | 151.23088 | 2248 ft | 194 kts | 327° |
| 2026-04-26 02:44 | -34.13629 | 151.22417 | 2220 ft | 196 kts | 340° |
| 2026-04-26 02:45 | -34.12329 | 151.21945 | 2202 ft | 196 kts | 347° |
| 2026-04-26 02:45 | -34.10989 | 151.21635 | 2182 ft | 196 kts | 349° |
| 2026-04-26 02:45 | -34.09645 | 151.21359 | 2101 ft | 196 kts | 351° |
| 2026-04-26 02:45 | -34.08330 | 151.21149 | 1957 ft | 188 kts | 352° |
| 2026-04-26 02:46 | -34.07059 | 151.20902 | 1885 ft | 180 kts | 349° |
| 2026-04-26 02:46 | -34.05892 | 151.20616 | 1709 ft | 164 kts | 346° |
| 2026-04-26 02:46 | -34.04828 | 151.20250 | 1482 ft | 159 kts | 342° |
| 2026-04-26 02:46 | -34.03766 | 151.19910 | 1347 ft | 158 kts | 347° |
| 2026-04-26 02:47 | -34.02687 | 151.19659 | 1193 ft | 158 kts | 349° |
| 2026-04-26 02:47 | -34.01605 | 151.19420 | 1039 ft | 157 kts | 347° |
| 2026-04-26 02:47 | -34.00594 | 151.19148 | 923 ft | 149 kts | 346° |
| 2026-04-26 02:47 | -33.99591 | 151.18884 | 694 ft | 147 kts | 348° |
| 2026-04-26 02:48 | -33.98585 | 151.18632 | 467 ft | 147 kts | 347° |
| 2026-04-26 02:48 | -33.97927 | 151.18466 | 372 ft | 143 kts | 347° |
| 2026-04-26 02:48 | -33.96671 | 151.18129 | 129 ft | 135 kts | 347° |
| 2026-04-26 02:48 | -33.95783 | 151.17894 | 32 ft | 119 kts | 347° |
| 2026-04-26 02:49 | -33.95344 | 151.17785 | 32 ft | 73 kts | 347° |
| 2026-04-26 02:49 | -33.94932 | 151.17675 | 31 ft | 64 kts | 349° |
| 2026-04-26 02:49 | -33.94558 | 151.17672 | 32 ft | 44 kts | 14° |
| 2026-04-26 02:49 | -33.94499 | 151.17691 | 32 ft | 7 kts | 15° |
| 2026-04-26 02:50 | -33.94439 | 151.17711 | 32 ft | 19 kts | 18° |
| 2026-04-26 02:50 | -33.94295 | 151.17724 | 32 ft | 22 kts | 343° |
| 2026-04-26 02:50 | -33.94191 | 151.17690 | 32 ft | 10 kts | 346° |
| 2026-04-26 02:50 | -33.94109 | 151.17672 | 31 ft | 13 kts | 345° |
| 2026-04-26 02:51 | -33.94012 | 151.17639 | 31 ft | 16 kts | 346° |
| 2026-04-26 02:51 | -33.93892 | 151.17608 | 31 ft | 19 kts | 350° |
| 2026-04-26 02:51 | -33.93814 | 151.17591 | 32 ft | 1 kts | 4° |
| 2026-04-26 02:51 | -33.93848 | 151.17592 | 31 ft | 9 kts | 6° |
| 2026-04-26 02:52 | -33.93845 | 151.17600 | 31 ft | 4 kts | 51° |
| 2026-04-26 02:52 | -33.93844 | 151.17658 | 32 ft | 10 kts | 102° |
| 2026-04-26 02:52 | -33.93844 | 151.17784 | 32 ft | 18 kts | 59° |
| 2026-04-26 02:52 | -33.93801 | 151.17939 | 33 ft | 21 kts | 75° |
| 2026-04-26 02:53 | -33.93764 | 151.18045 | 33 ft | 12 kts | 49° |
| 2026-04-26 02:53 | -33.93694 | 151.18059 | 33 ft | 8 kts | 334° |
| 2026-04-26 02:53 | -33.93679 | 151.18015 | 33 ft | 6 kts | 275° |
| 2026-04-26 02:53 | -33.93675 | 151.17983 | 33 ft | 2 kts | 279° |